sensor_id;sensor_type;location;lat;lon;timestamp;P1;durP1;ratioP1;P2;durP2;ratioP2
2053;SDS011;1032;52.542;13.440;2022-11-20T00:01:13;19.27;;;13.35;;
2053;SDS011;1032;52.542;13.440;2022-11-20T00:03:41;19.23;;;13.60;;
2053;SDS011;1032;52.542;13.440;2022-11-20T00:06:09;18.40;;;13.43;;
2053;SDS011;1032;52.542;13.440;2022-11-20T00:08:37;17.17;;;13.30;;
2053;SDS011;1032;52.542;13.440;2022-11-20T00:11:05;17.42;;;13.43;;
2053;SDS011;1032;52.542;13.440;2022-11-20T00:13:33;18.42;;;13.48;;
2053;SDS011;1032;52.542;13.440;2022-11-20T00:16:01;18.35;;;13.70;;
2053;SDS011;1032;52.542;13.440;2022-11-20T00:18:28;20.27;;;13.85;;
2053;SDS011;1032;52.542;13.440;2022-11-20T00:21:00;19.55;;;14.73;;
2053;SDS011;1032;52.542;13.440;2022-11-20T00:23:27;17.67;;;12.57;;
2053;SDS011;1032;52.542;13.440;2022-11-20T00:25:54;17.58;;;12.32;;
2053;SDS011;1032;52.542;13.440;2022-11-20T00:28:21;16.38;;;12.20;;
2053;SDS011;1032;52.542;13.440;2022-11-20T00:30:48;16.33;;;12.10;;
2053;SDS011;1032;52.542;13.440;2022-11-20T00:33:15;17.83;;;12.05;;
2053;SDS011;1032;52.542;13.440;2022-11-20T00:35:41;16.02;;;12.90;;
2053;SDS011;1032;52.542;13.440;2022-11-20T00:38:08;17.42;;;12.82;;
2053;SDS011;1032;52.542;13.440;2022-11-20T00:40:34;17.80;;;13.88;;
2053;SDS011;1032;52.542;13.440;2022-11-20T00:43:01;16.90;;;12.95;;
2053;SDS011;1032;52.542;13.440;2022-11-20T00:45:29;17.30;;;11.82;;
2053;SDS011;1032;52.542;13.440;2022-11-20T00:47:55;15.73;;;12.60;;
2053;SDS011;1032;52.542;13.440;2022-11-20T00:50:22;15.70;;;11.77;;
2053;SDS011;1032;52.542;13.440;2022-11-20T00:52:49;17.95;;;12.77;;
2053;SDS011;1032;52.542;13.440;2022-11-20T00:55:15;19.20;;;12.70;;
2053;SDS011;1032;52.542;13.440;2022-11-20T00:57:42;17.60;;;12.30;;
2053;SDS011;1032;52.542;13.440;2022-11-20T01:00:09;16.85;;;12.30;;
2053;SDS011;1032;52.542;13.440;2022-11-20T01:02:37;19.02;;;13.40;;
2053;SDS011;1032;52.542;13.440;2022-11-20T01:05:03;19.50;;;11.65;;
2053;SDS011;1032;52.542;13.440;2022-11-20T01:07:31;17.77;;;13.20;;
2053;SDS011;1032;52.542;13.440;2022-11-20T01:09:58;16.45;;;12.52;;
2053;SDS011;1032;52.542;13.440;2022-11-20T01:12:24;21.95;;;11.98;;
2053;SDS011;1032;52.542;13.440;2022-11-20T01:14:51;14.32;;;11.40;;
2053;SDS011;1032;52.542;13.440;2022-11-20T01:17:17;14.50;;;11.50;;
2053;SDS011;1032;52.542;13.440;2022-11-20T01:19:46;15.93;;;12.27;;
2053;SDS011;1032;52.542;13.440;2022-11-20T01:22:15;14.48;;;11.80;;
2053;SDS011;1032;52.542;13.440;2022-11-20T01:24:45;15.82;;;11.57;;
2053;SDS011;1032;52.542;13.440;2022-11-20T01:27:12;17.92;;;13.27;;
2053;SDS011;1032;52.542;13.440;2022-11-20T01:29:38;17.38;;;11.40;;
2053;SDS011;1032;52.542;13.440;2022-11-20T01:32:05;18.45;;;12.43;;
2053;SDS011;1032;52.542;13.440;2022-11-20T01:34:32;15.25;;;12.20;;
2053;SDS011;1032;52.542;13.440;2022-11-20T01:37:00;16.27;;;11.73;;
2053;SDS011;1032;52.542;13.440;2022-11-20T01:39:27;14.80;;;11.48;;
2053;SDS011;1032;52.542;13.440;2022-11-20T01:41:54;17.92;;;12.68;;
2053;SDS011;1032;52.542;13.440;2022-11-20T01:44:50;15.98;;;13.38;;
2053;SDS011;1032;52.542;13.440;2022-11-20T01:47:24;19.58;;;13.82;;
2053;SDS011;1032;52.542;13.440;2022-11-20T01:49:56;25.15;;;14.02;;
2053;SDS011;1032;52.542;13.440;2022-11-20T01:52:27;21.35;;;12.18;;
2053;SDS011;1032;52.542;13.440;2022-11-20T01:54:59;16.25;;;12.48;;
2053;SDS011;1032;52.542;13.440;2022-11-20T01:57:29;16.88;;;12.60;;
2053;SDS011;1032;52.542;13.440;2022-11-20T02:00:00;16.15;;;11.50;;
2053;SDS011;1032;52.542;13.440;2022-11-20T02:02:37;21.95;;;12.82;;
2053;SDS011;1032;52.542;13.440;2022-11-20T02:05:09;18.05;;;12.80;;
2053;SDS011;1032;52.542;13.440;2022-11-20T02:07:44;17.58;;;13.05;;
2053;SDS011;1032;52.542;13.440;2022-11-20T02:10:12;18.20;;;13.00;;
2053;SDS011;1032;52.542;13.440;2022-11-20T02:12:40;18.38;;;13.25;;
2053;SDS011;1032;52.542;13.440;2022-11-20T02:15:26;14.85;;;13.35;;
2053;SDS011;1032;52.542;13.440;2022-11-20T02:17:53;14.88;;;12.75;;
2053;SDS011;1032;52.542;13.440;2022-11-20T02:20:20;18.30;;;13.98;;
2053;SDS011;1032;52.542;13.440;2022-11-20T02:22:48;16.02;;;11.65;;
2053;SDS011;1032;52.542;13.440;2022-11-20T02:25:21;18.63;;;13.25;;
2053;SDS011;1032;52.542;13.440;2022-11-20T02:27:50;19.67;;;13.77;;
2053;SDS011;1032;52.542;13.440;2022-11-20T02:30:17;18.88;;;13.45;;
2053;SDS011;1032;52.542;13.440;2022-11-20T02:32:44;18.30;;;13.27;;
2053;SDS011;1032;52.542;13.440;2022-11-20T02:38:05;20.95;;;12.90;;
2053;SDS011;1032;52.542;13.440;2022-11-20T02:40:34;18.33;;;13.77;;
2053;SDS011;1032;52.542;13.440;2022-11-20T02:43:01;20.85;;;14.32;;
2053;SDS011;1032;52.542;13.440;2022-11-20T02:45:27;16.10;;;12.52;;
2053;SDS011;1032;52.542;13.440;2022-11-20T02:47:54;17.20;;;13.68;;
2053;SDS011;1032;52.542;13.440;2022-11-20T02:50:20;18.08;;;13.00;;
2053;SDS011;1032;52.542;13.440;2022-11-20T02:52:47;18.55;;;14.00;;
2053;SDS011;1032;52.542;13.440;2022-11-20T02:55:14;16.25;;;12.88;;
2053;SDS011;1032;52.542;13.440;2022-11-20T02:57:41;19.40;;;14.57;;
2053;SDS011;1032;52.542;13.440;2022-11-20T03:00:09;19.73;;;13.73;;
2053;SDS011;1032;52.542;13.440;2022-11-20T03:02:36;17.55;;;13.48;;
2053;SDS011;1032;52.542;13.440;2022-11-20T03:05:03;17.35;;;14.25;;
2053;SDS011;1032;52.542;13.440;2022-11-20T03:07:30;22.50;;;13.65;;
2053;SDS011;1032;52.542;13.440;2022-11-20T03:09:56;20.25;;;15.18;;
2053;SDS011;1032;52.542;13.440;2022-11-20T03:12:23;21.73;;;14.05;;
2053;SDS011;1032;52.542;13.440;2022-11-20T03:14:51;18.63;;;13.77;;
2053;SDS011;1032;52.542;13.440;2022-11-20T03:17:17;19.30;;;14.75;;
2053;SDS011;1032;52.542;13.440;2022-11-20T03:19:44;21.50;;;13.48;;
2053;SDS011;1032;52.542;13.440;2022-11-20T03:22:10;17.38;;;13.73;;
2053;SDS011;1032;52.542;13.440;2022-11-20T03:24:37;20.17;;;15.10;;
2053;SDS011;1032;52.542;13.440;2022-11-20T03:27:03;18.15;;;14.10;;
2053;SDS011;1032;52.542;13.440;2022-11-20T03:29:30;18.98;;;13.80;;
2053;SDS011;1032;52.542;13.440;2022-11-20T03:31:58;18.77;;;14.20;;
2053;SDS011;1032;52.542;13.440;2022-11-20T03:34:25;20.35;;;14.35;;
2053;SDS011;1032;52.542;13.440;2022-11-20T03:36:51;17.42;;;13.20;;
2053;SDS011;1032;52.542;13.440;2022-11-20T03:39:18;20.40;;;14.45;;
2053;SDS011;1032;52.542;13.440;2022-11-20T03:41:45;19.35;;;14.40;;
2053;SDS011;1032;52.542;13.440;2022-11-20T03:44:11;20.45;;;14.43;;
2053;SDS011;1032;52.542;13.440;2022-11-20T03:46:38;17.65;;;13.65;;
2053;SDS011;1032;52.542;13.440;2022-11-20T03:49:06;20.80;;;14.93;;
2053;SDS011;1032;52.542;13.440;2022-11-20T03:51:33;16.90;;;14.05;;
2053;SDS011;1032;52.542;13.440;2022-11-20T03:54:02;20.55;;;15.43;;
2053;SDS011;1032;52.542;13.440;2022-11-20T03:56:30;20.60;;;14.93;;
2053;SDS011;1032;52.542;13.440;2022-11-20T03:58:59;19.13;;;13.63;;
2053;SDS011;1032;52.542;13.440;2022-11-20T04:01:26;23.83;;;13.80;;
2053;SDS011;1032;52.542;13.440;2022-11-20T04:03:55;21.58;;;15.45;;
2053;SDS011;1032;52.542;13.440;2022-11-20T04:06:24;22.52;;;14.85;;
2053;SDS011;1032;52.542;13.440;2022-11-20T04:08:53;21.20;;;15.02;;
2053;SDS011;1032;52.542;13.440;2022-11-20T04:11:21;20.30;;;15.07;;
2053;SDS011;1032;52.542;13.440;2022-11-20T04:13:49;19.13;;;14.25;;
2053;SDS011;1032;52.542;13.440;2022-11-20T04:16:17;21.17;;;15.05;;
2053;SDS011;1032;52.542;13.440;2022-11-20T04:18:44;19.73;;;14.15;;
2053;SDS011;1032;52.542;13.440;2022-11-20T04:21:11;20.92;;;15.82;;
2053;SDS011;1032;52.542;13.440;2022-11-20T04:23:39;21.15;;;14.88;;
2053;SDS011;1032;52.542;13.440;2022-11-20T04:26:07;19.13;;;13.82;;
2053;SDS011;1032;52.542;13.440;2022-11-20T04:28:35;22.90;;;14.95;;
2053;SDS011;1032;52.542;13.440;2022-11-20T04:31:03;19.67;;;14.82;;
2053;SDS011;1032;52.542;13.440;2022-11-20T04:33:31;25.23;;;14.65;;
2053;SDS011;1032;52.542;13.440;2022-11-20T04:35:59;19.35;;;14.68;;
2053;SDS011;1032;52.542;13.440;2022-11-20T04:38:27;18.63;;;13.65;;
2053;SDS011;1032;52.542;13.440;2022-11-20T04:40:57;19.17;;;13.55;;
2053;SDS011;1032;52.542;13.440;2022-11-20T04:43:24;19.48;;;14.60;;
2053;SDS011;1032;52.542;13.440;2022-11-20T04:45:50;19.58;;;14.32;;
2053;SDS011;1032;52.542;13.440;2022-11-20T04:48:17;19.13;;;15.65;;
2053;SDS011;1032;52.542;13.440;2022-11-20T04:50:44;18.13;;;14.35;;
2053;SDS011;1032;52.542;13.440;2022-11-20T04:53:10;22.27;;;14.50;;
2053;SDS011;1032;52.542;13.440;2022-11-20T04:55:37;17.35;;;14.18;;
2053;SDS011;1032;52.542;13.440;2022-11-20T04:58:05;20.17;;;14.02;;
2053;SDS011;1032;52.542;13.440;2022-11-20T05:00:31;19.85;;;15.07;;
2053;SDS011;1032;52.542;13.440;2022-11-20T05:02:58;19.08;;;14.40;;
2053;SDS011;1032;52.542;13.440;2022-11-20T05:05:25;18.05;;;13.45;;
2053;SDS011;1032;52.542;13.440;2022-11-20T05:07:52;18.58;;;13.93;;
2053;SDS011;1032;52.542;13.440;2022-11-20T05:10:18;19.23;;;13.85;;
2053;SDS011;1032;52.542;13.440;2022-11-20T05:12:45;19.60;;;14.45;;
2053;SDS011;1032;52.542;13.440;2022-11-20T05:15:13;21.63;;;14.80;;
2053;SDS011;1032;52.542;13.440;2022-11-20T05:17:39;22.13;;;15.73;;
2053;SDS011;1032;52.542;13.440;2022-11-20T05:20:06;18.83;;;14.07;;
2053;SDS011;1032;52.542;13.440;2022-11-20T05:22:34;23.17;;;15.73;;
2053;SDS011;1032;52.542;13.440;2022-11-20T05:25:00;19.27;;;13.82;;
2053;SDS011;1032;52.542;13.440;2022-11-20T05:27:27;17.58;;;13.32;;
2053;SDS011;1032;52.542;13.440;2022-11-20T05:29:53;18.90;;;14.30;;
2053;SDS011;1032;52.542;13.440;2022-11-20T05:32:21;20.92;;;15.48;;
2053;SDS011;1032;52.542;13.440;2022-11-20T05:34:50;23.02;;;14.90;;
2053;SDS011;1032;52.542;13.440;2022-11-20T05:37:16;17.48;;;13.65;;
2053;SDS011;1032;52.542;13.440;2022-11-20T05:39:43;19.35;;;14.07;;
2053;SDS011;1032;52.542;13.440;2022-11-20T05:42:10;19.88;;;14.95;;
2053;SDS011;1032;52.542;13.440;2022-11-20T05:44:54;20.52;;;14.88;;
2053;SDS011;1032;52.542;13.440;2022-11-20T05:47:22;22.85;;;14.70;;
2053;SDS011;1032;52.542;13.440;2022-11-20T05:49:48;18.30;;;13.35;;
2053;SDS011;1032;52.542;13.440;2022-11-20T05:52:15;17.73;;;13.80;;
2053;SDS011;1032;52.542;13.440;2022-11-20T05:54:42;20.15;;;15.35;;
2053;SDS011;1032;52.542;13.440;2022-11-20T05:57:08;19.95;;;15.02;;
2053;SDS011;1032;52.542;13.440;2022-11-20T05:59:35;18.52;;;13.90;;
2053;SDS011;1032;52.542;13.440;2022-11-20T06:02:01;19.05;;;13.90;;
2053;SDS011;1032;52.542;13.440;2022-11-20T06:04:29;18.52;;;14.23;;
2053;SDS011;1032;52.542;13.440;2022-11-20T06:06:56;20.00;;;14.30;;
2053;SDS011;1032;52.542;13.440;2022-11-20T06:09:22;20.15;;;13.93;;
2053;SDS011;1032;52.542;13.440;2022-11-20T06:11:49;22.40;;;15.70;;
2053;SDS011;1032;52.542;13.440;2022-11-20T06:14:16;19.13;;;15.30;;
2053;SDS011;1032;52.542;13.440;2022-11-20T06:16:42;19.10;;;13.77;;
2053;SDS011;1032;52.542;13.440;2022-11-20T06:19:09;20.45;;;14.27;;
2053;SDS011;1032;52.542;13.440;2022-11-20T06:21:37;17.98;;;14.10;;
2053;SDS011;1032;52.542;13.440;2022-11-20T06:24:03;20.13;;;12.90;;
2053;SDS011;1032;52.542;13.440;2022-11-20T06:26:30;21.60;;;15.38;;
2053;SDS011;1032;52.542;13.440;2022-11-20T06:28:57;23.58;;;16.42;;
2053;SDS011;1032;52.542;13.440;2022-11-20T06:31:24;19.90;;;13.77;;
2053;SDS011;1032;52.542;13.440;2022-11-20T06:33:51;20.60;;;14.98;;
2053;SDS011;1032;52.542;13.440;2022-11-20T06:36:19;16.85;;;13.73;;
2053;SDS011;1032;52.542;13.440;2022-11-20T06:38:48;18.85;;;14.77;;
2053;SDS011;1032;52.542;13.440;2022-11-20T06:41:16;19.67;;;14.52;;
2053;SDS011;1032;52.542;13.440;2022-11-20T06:43:44;23.25;;;14.48;;
2053;SDS011;1032;52.542;13.440;2022-11-20T06:46:11;22.58;;;15.23;;
2053;SDS011;1032;52.542;13.440;2022-11-20T06:48:38;18.23;;;12.80;;
2053;SDS011;1032;52.542;13.440;2022-11-20T06:51:06;17.50;;;12.95;;
2053;SDS011;1032;52.542;13.440;2022-11-20T06:53:33;19.60;;;14.80;;
2053;SDS011;1032;52.542;13.440;2022-11-20T06:56:02;18.02;;;14.27;;
2053;SDS011;1032;52.542;13.440;2022-11-20T06:58:29;19.23;;;14.27;;
2053;SDS011;1032;52.542;13.440;2022-11-20T07:00:57;21.45;;;15.20;;
2053;SDS011;1032;52.542;13.440;2022-11-20T07:03:24;23.50;;;15.90;;
2053;SDS011;1032;52.542;13.440;2022-11-20T07:05:53;19.13;;;13.23;;
2053;SDS011;1032;52.542;13.440;2022-11-20T07:08:20;19.17;;;15.00;;
2053;SDS011;1032;52.542;13.440;2022-11-20T07:10:47;22.90;;;15.10;;
2053;SDS011;1032;52.542;13.440;2022-11-20T07:13:14;19.33;;;14.43;;
2053;SDS011;1032;52.542;13.440;2022-11-20T07:15:41;18.33;;;14.63;;
2053;SDS011;1032;52.542;13.440;2022-11-20T07:18:08;17.67;;;13.85;;
2053;SDS011;1032;52.542;13.440;2022-11-20T07:20:34;17.05;;;12.90;;
2053;SDS011;1032;52.542;13.440;2022-11-20T07:23:01;17.40;;;13.18;;
2053;SDS011;1032;52.542;13.440;2022-11-20T07:25:28;20.67;;;15.02;;
2053;SDS011;1032;52.542;13.440;2022-11-20T07:27:56;19.10;;;14.80;;
2053;SDS011;1032;52.542;13.440;2022-11-20T07:30:24;19.25;;;15.07;;
2053;SDS011;1032;52.542;13.440;2022-11-20T07:32:52;19.75;;;14.93;;
2053;SDS011;1032;52.542;13.440;2022-11-20T07:35:19;20.35;;;14.80;;
2053;SDS011;1032;52.542;13.440;2022-11-20T07:37:46;19.27;;;14.57;;
2053;SDS011;1032;52.542;13.440;2022-11-20T07:40:13;20.17;;;14.93;;
2053;SDS011;1032;52.542;13.440;2022-11-20T07:42:46;19.10;;;14.43;;
2053;SDS011;1032;52.542;13.440;2022-11-20T07:45:13;19.15;;;15.52;;
2053;SDS011;1032;52.542;13.440;2022-11-20T07:47:41;23.45;;;15.20;;
2053;SDS011;1032;52.542;13.440;2022-11-20T07:50:08;19.67;;;14.23;;
2053;SDS011;1032;52.542;13.440;2022-11-20T07:52:35;19.20;;;15.02;;
2053;SDS011;1032;52.542;13.440;2022-11-20T07:55:02;20.02;;;16.38;;
2053;SDS011;1032;52.542;13.440;2022-11-20T07:57:28;21.08;;;16.05;;
2053;SDS011;1032;52.542;13.440;2022-11-20T07:59:55;23.05;;;16.83;;
2053;SDS011;1032;52.542;13.440;2022-11-20T08:02:21;20.40;;;15.80;;
2053;SDS011;1032;52.542;13.440;2022-11-20T08:04:50;21.38;;;16.40;;
2053;SDS011;1032;52.542;13.440;2022-11-20T08:07:17;18.80;;;14.35;;
2053;SDS011;1032;52.542;13.440;2022-11-20T08:09:44;20.85;;;15.95;;
2053;SDS011;1032;52.542;13.440;2022-11-20T08:12:15;19.15;;;14.82;;
2053;SDS011;1032;52.542;13.440;2022-11-20T08:15:02;23.10;;;16.00;;
2053;SDS011;1032;52.542;13.440;2022-11-20T08:17:28;20.63;;;15.30;;
2053;SDS011;1032;52.542;13.440;2022-11-20T08:19:56;21.23;;;15.52;;
2053;SDS011;1032;52.542;13.440;2022-11-20T08:22:23;21.95;;;14.98;;
2053;SDS011;1032;52.542;13.440;2022-11-20T08:24:50;19.95;;;14.63;;
2053;SDS011;1032;52.542;13.440;2022-11-20T08:27:16;21.17;;;16.00;;
2053;SDS011;1032;52.542;13.440;2022-11-20T08:29:43;22.83;;;16.77;;
2053;SDS011;1032;52.542;13.440;2022-11-20T08:32:09;21.00;;;15.90;;
2053;SDS011;1032;52.542;13.440;2022-11-20T08:34:36;20.83;;;15.85;;
2053;SDS011;1032;52.542;13.440;2022-11-20T08:37:04;23.38;;;16.00;;
2053;SDS011;1032;52.542;13.440;2022-11-20T08:39:31;22.55;;;16.88;;
2053;SDS011;1032;52.542;13.440;2022-11-20T08:41:57;22.85;;;16.58;;
2053;SDS011;1032;52.542;13.440;2022-11-20T08:44:24;22.60;;;16.05;;
2053;SDS011;1032;52.542;13.440;2022-11-20T08:46:50;24.35;;;14.90;;
2053;SDS011;1032;52.542;13.440;2022-11-20T08:49:20;20.15;;;15.35;;
2053;SDS011;1032;52.542;13.440;2022-11-20T08:51:54;19.23;;;14.68;;
2053;SDS011;1032;52.542;13.440;2022-11-20T08:54:25;18.90;;;14.20;;
2053;SDS011;1032;52.542;13.440;2022-11-20T08:56:52;21.60;;;15.35;;
2053;SDS011;1032;52.542;13.440;2022-11-20T08:59:19;20.90;;;15.40;;
2053;SDS011;1032;52.542;13.440;2022-11-20T09:01:45;20.80;;;15.85;;
2053;SDS011;1032;52.542;13.440;2022-11-20T09:04:12;24.13;;;16.33;;
2053;SDS011;1032;52.542;13.440;2022-11-20T09:06:39;22.33;;;16.42;;
2053;SDS011;1032;52.542;13.440;2022-11-20T09:09:06;21.25;;;16.45;;
2053;SDS011;1032;52.542;13.440;2022-11-20T09:11:35;21.25;;;15.70;;
2053;SDS011;1032;52.542;13.440;2022-11-20T09:14:01;23.05;;;16.67;;
2053;SDS011;1032;52.542;13.440;2022-11-20T09:16:29;22.23;;;17.10;;
2053;SDS011;1032;52.542;13.440;2022-11-20T09:18:56;22.20;;;17.90;;
2053;SDS011;1032;52.542;13.440;2022-11-20T09:21:22;23.60;;;17.33;;
2053;SDS011;1032;52.542;13.440;2022-11-20T09:23:49;23.33;;;17.10;;
2053;SDS011;1032;52.542;13.440;2022-11-20T09:26:16;21.23;;;16.15;;
2053;SDS011;1032;52.542;13.440;2022-11-20T09:28:44;24.73;;;16.13;;
2053;SDS011;1032;52.542;13.440;2022-11-20T09:31:13;22.70;;;17.52;;
2053;SDS011;1032;52.542;13.440;2022-11-20T09:33:45;25.02;;;16.60;;
2053;SDS011;1032;52.542;13.440;2022-11-20T09:36:11;25.52;;;16.80;;
2053;SDS011;1032;52.542;13.440;2022-11-20T09:38:38;20.63;;;17.35;;
2053;SDS011;1032;52.542;13.440;2022-11-20T09:41:06;20.85;;;15.30;;
2053;SDS011;1032;52.542;13.440;2022-11-20T09:43:42;22.35;;;15.85;;
2053;SDS011;1032;52.542;13.440;2022-11-20T09:46:22;26.92;;;16.30;;
2053;SDS011;1032;52.542;13.440;2022-11-20T09:48:58;20.38;;;15.65;;
2053;SDS011;1032;52.542;13.440;2022-11-20T09:51:36;21.60;;;14.98;;
2053;SDS011;1032;52.542;13.440;2022-11-20T09:54:13;24.27;;;15.80;;
2053;SDS011;1032;52.542;13.440;2022-11-20T09:56:44;20.77;;;15.18;;
2053;SDS011;1032;52.542;13.440;2022-11-20T09:59:18;23.00;;;15.98;;
2053;SDS011;1032;52.542;13.440;2022-11-20T10:02:14;23.48;;;15.20;;
2053;SDS011;1032;52.542;13.440;2022-11-20T10:04:44;20.33;;;15.27;;
2053;SDS011;1032;52.542;13.440;2022-11-20T10:07:18;16.67;;;13.82;;
2053;SDS011;1032;52.542;13.440;2022-11-20T10:09:51;19.85;;;15.43;;
2053;SDS011;1032;52.542;13.440;2022-11-20T10:12:21;21.60;;;14.75;;
2053;SDS011;1032;52.542;13.440;2022-11-20T10:15:02;21.75;;;15.38;;
2053;SDS011;1032;52.542;13.440;2022-11-20T10:17:50;20.75;;;15.23;;
2053;SDS011;1032;52.542;13.440;2022-11-20T10:20:27;18.42;;;13.63;;
2053;SDS011;1032;52.542;13.440;2022-11-20T10:23:07;21.40;;;16.60;;
2053;SDS011;1032;52.542;13.440;2022-11-20T10:25:50;21.35;;;15.77;;
2053;SDS011;1032;52.542;13.440;2022-11-20T10:28:24;19.35;;;14.77;;
2053;SDS011;1032;52.542;13.440;2022-11-20T10:31:04;19.55;;;14.30;;
2053;SDS011;1032;52.542;13.440;2022-11-20T10:33:35;17.33;;;14.23;;
2053;SDS011;1032;52.542;13.440;2022-11-20T10:36:06;19.75;;;13.75;;
2053;SDS011;1032;52.542;13.440;2022-11-20T10:38:40;19.58;;;14.55;;
2053;SDS011;1032;52.542;13.440;2022-11-20T10:41:14;20.52;;;15.65;;
2053;SDS011;1032;52.542;13.440;2022-11-20T10:43:53;21.15;;;13.98;;
2053;SDS011;1032;52.542;13.440;2022-11-20T10:46:26;18.15;;;14.73;;
2053;SDS011;1032;52.542;13.440;2022-11-20T10:49:02;19.85;;;14.88;;
2053;SDS011;1032;52.542;13.440;2022-11-20T10:51:35;21.80;;;17.05;;
2053;SDS011;1032;52.542;13.440;2022-11-20T10:54:10;23.33;;;15.75;;
2053;SDS011;1032;52.542;13.440;2022-11-20T10:56:46;19.52;;;15.40;;
2053;SDS011;1032;52.542;13.440;2022-11-20T11:02:12;20.60;;;14.70;;
2053;SDS011;1032;52.542;13.440;2022-11-20T11:04:43;17.40;;;14.23;;
2053;SDS011;1032;52.542;13.440;2022-11-20T11:07:12;19.23;;;14.70;;
2053;SDS011;1032;52.542;13.440;2022-11-20T11:09:43;19.13;;;14.18;;
2053;SDS011;1032;52.542;13.440;2022-11-20T11:12:12;18.67;;;15.02;;
2053;SDS011;1032;52.542;13.440;2022-11-20T11:14:47;17.90;;;14.20;;
2053;SDS011;1032;52.542;13.440;2022-11-20T11:17:23;19.15;;;14.75;;
2053;SDS011;1032;52.542;13.440;2022-11-20T11:20:03;20.73;;;13.85;;
2053;SDS011;1032;52.542;13.440;2022-11-20T11:22:42;19.13;;;13.90;;
2053;SDS011;1032;52.542;13.440;2022-11-20T11:25:18;15.93;;;13.52;;
2053;SDS011;1032;52.542;13.440;2022-11-20T11:27:47;18.02;;;15.27;;
2053;SDS011;1032;52.542;13.440;2022-11-20T11:30:15;17.88;;;13.65;;
2053;SDS011;1032;52.542;13.440;2022-11-20T11:32:44;18.48;;;13.88;;
2053;SDS011;1032;52.542;13.440;2022-11-20T11:35:19;19.50;;;13.80;;
2053;SDS011;1032;52.542;13.440;2022-11-20T11:37:47;19.75;;;14.30;;
2053;SDS011;1032;52.542;13.440;2022-11-20T11:40:15;21.83;;;16.20;;
2053;SDS011;1032;52.542;13.440;2022-11-20T11:42:44;21.40;;;14.93;;
2053;SDS011;1032;52.542;13.440;2022-11-20T11:45:18;15.93;;;12.88;;
2053;SDS011;1032;52.542;13.440;2022-11-20T11:47:46;16.93;;;14.10;;
2053;SDS011;1032;52.542;13.440;2022-11-20T11:50:15;18.50;;;13.40;;
2053;SDS011;1032;52.542;13.440;2022-11-20T11:52:45;14.00;;;12.20;;
2053;SDS011;1032;52.542;13.440;2022-11-20T11:55:17;20.77;;;12.85;;
2053;SDS011;1032;52.542;13.440;2022-11-20T11:57:52;17.73;;;12.98;;
2053;SDS011;1032;52.542;13.440;2022-11-20T12:00:23;24.75;;;15.55;;
2053;SDS011;1032;52.542;13.440;2022-11-20T12:02:57;17.63;;;13.45;;
2053;SDS011;1032;52.542;13.440;2022-11-20T12:05:32;23.75;;;16.52;;
2053;SDS011;1032;52.542;13.440;2022-11-20T12:08:05;19.98;;;15.50;;
2053;SDS011;1032;52.542;13.440;2022-11-20T12:10:40;22.30;;;14.38;;
2053;SDS011;1032;52.542;13.440;2022-11-20T12:13:15;18.27;;;14.75;;
2053;SDS011;1032;52.542;13.440;2022-11-20T12:15:48;18.83;;;13.55;;
2053;SDS011;1032;52.542;13.440;2022-11-20T12:18:17;19.38;;;13.45;;
2053;SDS011;1032;52.542;13.440;2022-11-20T12:20:48;20.05;;;15.48;;
2053;SDS011;1032;52.542;13.440;2022-11-20T12:23:26;21.13;;;13.50;;
2053;SDS011;1032;52.542;13.440;2022-11-20T12:25:56;19.55;;;13.52;;
2053;SDS011;1032;52.542;13.440;2022-11-20T12:28:30;18.45;;;13.23;;
2053;SDS011;1032;52.542;13.440;2022-11-20T12:31:10;20.35;;;13.85;;
2053;SDS011;1032;52.542;13.440;2022-11-20T12:34:00;16.00;;;12.35;;
2053;SDS011;1032;52.542;13.440;2022-11-20T12:36:49;18.75;;;11.80;;
2053;SDS011;1032;52.542;13.440;2022-11-20T12:39:26;15.93;;;12.18;;
2053;SDS011;1032;52.542;13.440;2022-11-20T12:42:21;17.83;;;11.65;;
2053;SDS011;1032;52.542;13.440;2022-11-20T12:45:29;28.80;;;12.70;;
2053;SDS011;1032;52.542;13.440;2022-11-20T12:48:18;19.02;;;12.65;;
2053;SDS011;1032;52.542;13.440;2022-11-20T12:51:21;17.08;;;12.57;;
2053;SDS011;1032;52.542;13.440;2022-11-20T12:54:24;19.98;;;11.75;;
2053;SDS011;1032;52.542;13.440;2022-11-20T12:57:08;29.95;;;24.45;;
2053;SDS011;1032;52.542;13.440;2022-11-20T12:59:58;19.98;;;13.18;;
2053;SDS011;1032;52.542;13.440;2022-11-20T13:02:37;17.85;;;12.48;;
2053;SDS011;1032;52.542;13.440;2022-11-20T13:05:17;14.15;;;11.32;;
2053;SDS011;1032;52.542;13.440;2022-11-20T13:07:48;22.17;;;12.05;;
2053;SDS011;1032;52.542;13.440;2022-11-20T13:10:20;14.23;;;10.35;;
2053;SDS011;1032;52.542;13.440;2022-11-20T13:12:53;12.73;;;9.63;;
2053;SDS011;1032;52.542;13.440;2022-11-20T13:15:28;14.05;;;10.55;;
2053;SDS011;1032;52.542;13.440;2022-11-20T13:18:04;13.57;;;9.77;;
2053;SDS011;1032;52.542;13.440;2022-11-20T13:20:34;12.73;;;10.45;;
2053;SDS011;1032;52.542;13.440;2022-11-20T13:23:03;10.45;;;9.32;;
2053;SDS011;1032;52.542;13.440;2022-11-20T13:25:30;11.75;;;9.90;;
2053;SDS011;1032;52.542;13.440;2022-11-20T13:27:59;12.70;;;9.30;;
2053;SDS011;1032;52.542;13.440;2022-11-20T13:30:29;13.00;;;9.60;;
2053;SDS011;1032;52.542;13.440;2022-11-20T13:32:57;14.88;;;10.25;;
2053;SDS011;1032;52.542;13.440;2022-11-20T13:35:30;13.88;;;10.85;;
2053;SDS011;1032;52.542;13.440;2022-11-20T13:37:59;16.70;;;11.45;;
2053;SDS011;1032;52.542;13.440;2022-11-20T13:40:29;16.42;;;12.57;;
2053;SDS011;1032;52.542;13.440;2022-11-20T13:43:02;14.40;;;10.07;;
2053;SDS011;1032;52.542;13.440;2022-11-20T13:45:53;13.65;;;9.40;;
2053;SDS011;1032;52.542;13.440;2022-11-20T13:48:21;15.55;;;12.52;;
2053;SDS011;1032;52.542;13.440;2022-11-20T13:50:55;14.75;;;9.43;;
2053;SDS011;1032;52.542;13.440;2022-11-20T13:53:50;12.02;;;9.40;;
2053;SDS011;1032;52.542;13.440;2022-11-20T13:56:32;14.15;;;10.02;;
2053;SDS011;1032;52.542;13.440;2022-11-20T13:59:07;11.02;;;8.65;;
2053;SDS011;1032;52.542;13.440;2022-11-20T14:01:43;12.98;;;9.25;;
2053;SDS011;1032;52.542;13.440;2022-11-20T14:04:12;13.55;;;9.57;;
2053;SDS011;1032;52.542;13.440;2022-11-20T14:06:42;17.45;;;9.90;;
2053;SDS011;1032;52.542;13.440;2022-11-20T14:09:10;10.32;;;8.73;;
2053;SDS011;1032;52.542;13.440;2022-11-20T14:11:45;13.68;;;9.23;;
2053;SDS011;1032;52.542;13.440;2022-11-20T14:14:13;12.80;;;10.25;;
2053;SDS011;1032;52.542;13.440;2022-11-20T14:16:41;13.07;;;9.70;;
2053;SDS011;1032;52.542;13.440;2022-11-20T14:19:19;17.58;;;11.35;;
2053;SDS011;1032;52.542;13.440;2022-11-20T14:21:53;14.73;;;10.50;;
2053;SDS011;1032;52.542;13.440;2022-11-20T14:24:22;13.07;;;10.43;;
2053;SDS011;1032;52.542;13.440;2022-11-20T14:26:51;18.02;;;11.02;;
2053;SDS011;1032;52.542;13.440;2022-11-20T14:29:18;15.27;;;11.25;;
2053;SDS011;1032;52.542;13.440;2022-11-20T14:31:47;16.17;;;10.90;;
2053;SDS011;1032;52.542;13.440;2022-11-20T14:34:18;17.90;;;12.43;;
2053;SDS011;1032;52.542;13.440;2022-11-20T14:36:48;23.67;;;12.38;;
2053;SDS011;1032;52.542;13.440;2022-11-20T14:39:19;18.30;;;11.73;;
2053;SDS011;1032;52.542;13.440;2022-11-20T14:41:51;19.50;;;12.60;;
2053;SDS011;1032;52.542;13.440;2022-11-20T14:44:19;17.08;;;12.45;;
2053;SDS011;1032;52.542;13.440;2022-11-20T14:46:49;14.90;;;12.40;;
2053;SDS011;1032;52.542;13.440;2022-11-20T14:49:17;21.02;;;13.20;;
2053;SDS011;1032;52.542;13.440;2022-11-20T14:51:43;17.50;;;12.02;;
2053;SDS011;1032;52.542;13.440;2022-11-20T14:54:12;14.50;;;10.63;;
2053;SDS011;1032;52.542;13.440;2022-11-20T14:56:40;15.48;;;11.48;;
2053;SDS011;1032;52.542;13.440;2022-11-20T14:59:08;13.43;;;11.02;;